LIPQ/TRS METAR and TAF weather

Enter ICAO airport designator
Station Type Date Time Source
LIPQ METAR 2022/06/27 17:50 UTC NOAA

LIPQ 271750Z AUTO 25004KT 9999 NCD 31/11 Q1014


Station Type Date Time Source
LIPQ Decoded METAR 2022/06/27 17:50 UTC NOAA

Ronchi Dei Legionari, Italy (LIPQ) 45-49N 013-29E 12M
Jun 27, 2022 - 01:50 PM EDT / 2022.06.27 1750 UTC
Wind: from the WSW (250 degrees) at 5 MPH (4 KT):0
Visibility: greater than 7 mile(s):0
Temperature: 87 F (31 C)
Dew Point: 51 F (11 C)
Relative Humidity: 29%
Pressure (altimeter): 29.94 in. Hg (1014 hPa)
ob: LIPQ 271750Z AUTO 25004KT 9999 NCD 31/11 Q1014
cycle: 18

Station Type Date Time Source
LIPQ TAF 2022/06/27 18:21 UTC NOAA

TAF LIPQ 271700Z 2718/2818 VRB05KT CAVOK
BECMG 2810/2812 19010KT
TEMPO 2814/2818 RA
BECMG 2814/2816 06012KT

Example: see airport list